METAR Data
IDs: Format: Raw Decoded Include TAF

Data at: 0113 UTC 24 May 2019

KRZL 240055Z AUTO 00000KT 10SM CLR 21/13 A3007 RMK AO2